createdAt,value
2022-09-11T00:01:14.555Z,13.91
2022-09-11T00:03:43.295Z,13.68
2022-09-11T00:06:13.373Z,13.86
2022-09-11T00:08:41.395Z,14.00
2022-09-11T00:11:17.657Z,13.84
2022-09-11T00:13:50.226Z,13.72
2022-09-11T00:16:28.713Z,13.89
2022-09-11T00:18:58.120Z,13.99
2022-09-11T00:21:25.474Z,14.03
2022-09-11T00:23:52.248Z,13.96
2022-09-11T00:26:19.543Z,13.89
2022-09-11T00:28:46.669Z,13.80
2022-09-11T00:31:16.898Z,13.75
2022-09-11T00:33:44.835Z,13.77
2022-09-11T00:36:17.452Z,13.65
2022-09-11T00:38:46.357Z,13.69
2022-09-11T00:41:17.141Z,13.84
2022-09-11T00:43:52.896Z,13.88
2022-09-11T00:46:21.003Z,13.92
2022-09-11T00:48:50.702Z,13.90
2022-09-11T00:51:26.719Z,13.80
2022-09-11T00:53:56.400Z,13.73
2022-09-11T00:56:26.386Z,13.62
2022-09-11T00:58:55.687Z,13.80
2022-09-11T01:01:22.358Z,13.79
2022-09-11T01:03:49.225Z,13.69
2022-09-11T01:06:16.363Z,13.64
2022-09-11T01:08:43.748Z,13.60
2022-09-11T01:11:21.125Z,13.74
2022-09-11T01:14:19.971Z,13.73
2022-09-11T01:16:56.967Z,13.62
2022-09-11T01:20:06.534Z,13.60
2022-09-11T01:22:51.880Z,13.65
2022-09-11T01:25:28.029Z,13.57
2022-09-11T01:27:59.012Z,13.55
2022-09-11T01:30:35.582Z,13.65
2022-09-11T01:33:23.070Z,13.56
2022-09-11T01:36:14.140Z,13.53
2022-09-11T01:39:00.823Z,13.62
2022-09-11T01:41:30.109Z,13.53
2022-09-11T01:44:12.505Z,13.63
2022-09-11T01:46:44.344Z,13.49
2022-09-11T01:49:17.187Z,13.37
2022-09-11T01:51:44.842Z,13.50
2022-09-11T01:54:17.112Z,13.62
2022-09-11T01:56:52.433Z,13.37
2022-09-11T01:59:27.903Z,13.38
2022-09-11T02:02:07.884Z,13.27
2022-09-11T02:04:41.112Z,13.20
2022-09-11T02:07:19.827Z,13.24
2022-09-11T02:10:00.091Z,13.30
2022-09-11T02:12:33.614Z,13.51
2022-09-11T02:15:00.497Z,13.41
2022-09-11T02:17:52.325Z,13.45
2022-09-11T02:20:21.027Z,13.46
2022-09-11T02:22:49.086Z,13.29
2022-09-11T02:25:16.278Z,13.26
2022-09-11T02:27:42.874Z,13.23
2022-09-11T02:30:10.381Z,13.40
2022-09-11T02:32:40.971Z,13.45
2022-09-11T02:35:09.193Z,13.49
2022-09-11T02:37:59.240Z,13.29
2022-09-11T02:40:56.416Z,13.20
2022-09-11T02:44:27.739Z,13.47
2022-09-11T02:47:15.008Z,13.34
2022-09-11T02:50:13.870Z,13.29
2022-09-11T02:53:10.135Z,13.29
2022-09-11T02:55:56.742Z,13.24
2022-09-11T02:58:28.642Z,13.17
2022-09-11T03:01:00.462Z,13.11
2022-09-11T03:03:27.244Z,13.04
2022-09-11T03:05:54.257Z,13.00
2022-09-11T03:08:20.841Z,13.18
2022-09-11T03:10:49.967Z,13.20
2022-09-11T03:13:16.622Z,13.06
2022-09-11T03:15:46.044Z,13.16
2022-09-11T03:18:14.552Z,13.17
2022-09-11T03:20:44.981Z,13.14
2022-09-11T03:23:11.508Z,13.15
2022-09-11T03:25:38.041Z,12.99
2022-09-11T03:28:04.702Z,13.05
2022-09-11T03:30:32.296Z,13.13
2022-09-11T03:33:00.616Z,13.18
2022-09-11T03:35:27.979Z,13.30
2022-09-11T03:37:55.583Z,12.93
2022-09-11T03:40:23.019Z,12.97
2022-09-11T03:42:49.634Z,12.75
2022-09-11T03:45:16.374Z,12.88
2022-09-11T03:47:43.057Z,13.09
2022-09-11T03:50:10.742Z,12.92
2022-09-11T03:52:37.820Z,13.00
2022-09-11T03:55:06.027Z,12.99
2022-09-11T03:57:41.542Z,12.89
2022-09-11T04:00:10.028Z,12.98
2022-09-11T04:02:36.552Z,13.08
2022-09-11T04:05:04.465Z,13.12
2022-09-11T04:07:31.080Z,13.10
2022-09-11T04:09:58.392Z,12.85
2022-09-11T04:12:25.695Z,12.89
2022-09-11T04:14:52.607Z,12.87
2022-09-11T04:17:19.161Z,12.87
2022-09-11T04:19:45.779Z,12.79
2022-09-11T04:22:12.282Z,13.02
2022-09-11T04:24:38.886Z,12.93
2022-09-11T04:27:05.666Z,12.91
2022-09-11T04:29:33.827Z,12.90
2022-09-11T04:32:00.310Z,12.91
2022-09-11T04:34:26.812Z,12.82
2022-09-11T04:36:55.909Z,12.81
2022-09-11T04:39:22.807Z,12.67
2022-09-11T04:41:49.465Z,12.61
2022-09-11T04:44:16.024Z,12.74
2022-09-11T04:46:42.977Z,12.58
2022-09-11T04:49:10.807Z,12.58
2022-09-11T04:51:39.126Z,12.44
2022-09-11T04:54:06.253Z,12.45
2022-09-11T04:56:34.858Z,12.54
2022-09-11T04:59:05.897Z,12.59
2022-09-11T05:01:34.169Z,12.66
2022-09-11T05:04:01.644Z,12.62
2022-09-11T05:06:30.844Z,12.59
2022-09-11T05:09:02.711Z,12.59
2022-09-11T05:11:32.932Z,12.43
2022-09-11T05:14:00.129Z,12.37
2022-09-11T05:16:28.652Z,12.46
2022-09-11T05:18:56.643Z,12.39
2022-09-11T05:21:26.340Z,12.28
2022-09-11T05:23:55.537Z,12.27
2022-09-11T05:26:24.943Z,12.31
2022-09-11T05:29:00.186Z,12.35
2022-09-11T05:31:28.898Z,12.30
2022-09-11T05:33:56.267Z,12.39
2022-09-11T05:36:23.803Z,12.56
2022-09-11T05:38:50.641Z,12.55
2022-09-11T05:41:17.472Z,12.43
2022-09-11T05:43:44.285Z,12.34
2022-09-11T05:46:13.414Z,12.47
2022-09-11T05:48:40.182Z,12.41
2022-09-11T05:51:12.971Z,12.64
2022-09-11T05:53:39.868Z,12.60
2022-09-11T05:56:19.886Z,12.74
2022-09-11T05:58:48.213Z,12.78
2022-09-11T06:01:19.851Z,12.73
2022-09-11T06:03:48.556Z,12.79
2022-09-11T06:06:16.713Z,12.92
2022-09-11T06:08:47.510Z,13.03
2022-09-11T06:11:16.285Z,12.97
2022-09-11T06:13:44.841Z,13.17
2022-09-11T06:16:18.098Z,13.25
2022-09-11T06:18:49.322Z,13.51
2022-09-11T06:21:20.136Z,13.84
2022-09-11T06:23:48.876Z,13.96
2022-09-11T06:26:21.391Z,13.92
2022-09-11T06:28:48.536Z,14.35
2022-09-11T06:31:17.584Z,14.20
2022-09-11T06:33:45.014Z,14.82
2022-09-11T06:36:17.537Z,15.16
2022-09-11T06:38:44.550Z,15.27
2022-09-11T06:41:14.911Z,15.62
2022-09-11T06:43:42.605Z,16.24
2022-09-11T06:46:14.554Z,16.63
2022-09-11T06:48:43.135Z,16.89
2022-09-11T06:51:15.437Z,17.40
2022-09-11T06:53:42.269Z,16.96
2022-09-11T06:56:12.988Z,16.62
2022-09-11T06:58:40.140Z,16.70
2022-09-11T07:01:10.126Z,16.41
2022-09-11T07:03:37.522Z,16.07
2022-09-11T07:06:05.945Z,16.68
2022-09-11T07:08:32.505Z,17.05
2022-09-11T07:11:06.296Z,17.57
2022-09-11T07:13:37.485Z,17.41
2022-09-11T07:16:07.972Z,17.75
2022-09-11T07:18:36.521Z,17.45
2022-09-11T07:21:23.874Z,16.60
2022-09-11T07:23:54.421Z,16.78
2022-09-11T07:26:22.286Z,17.02
2022-09-11T07:28:50.269Z,16.99
2022-09-11T07:31:21.121Z,16.60
2022-09-11T07:33:49.168Z,16.49
2022-09-11T07:36:18.767Z,16.71
2022-09-11T07:38:47.755Z,16.61
2022-09-11T07:41:15.735Z,16.68
2022-09-11T07:43:45.551Z,17.55
2022-09-11T07:46:13.002Z,17.83
2022-09-11T07:48:40.480Z,17.71
2022-09-11T07:51:09.292Z,17.18
2022-09-11T07:53:38.359Z,17.23
2022-09-11T07:56:07.091Z,17.19
2022-09-11T07:58:38.467Z,17.63
2022-09-11T08:01:06.433Z,18.29
2022-09-11T08:03:34.360Z,19.32
2022-09-11T08:06:02.671Z,19.82
2022-09-11T08:08:30.311Z,19.29
2022-09-11T08:11:04.475Z,17.81
2022-09-11T08:13:31.224Z,18.64
2022-09-11T08:15:57.783Z,19.13
2022-09-11T08:18:24.610Z,19.91
2022-09-11T08:20:51.318Z,19.90
2022-09-11T08:23:17.886Z,19.85
2022-09-11T08:25:44.611Z,19.69
2022-09-11T08:28:11.372Z,20.61
2022-09-11T08:30:40.411Z,19.46
2022-09-11T08:33:08.590Z,21.20
2022-09-11T08:35:35.656Z,20.95
2022-09-11T08:38:03.321Z,20.69
2022-09-11T08:40:31.705Z,20.60
2022-09-11T08:43:02.646Z,19.90
2022-09-11T08:45:34.821Z,19.78
2022-09-11T08:48:01.909Z,19.57
2022-09-11T08:50:35.091Z,19.27
2022-09-11T08:53:03.117Z,19.08
2022-09-11T08:55:52.526Z,19.56
2022-09-11T08:58:46.129Z,20.13
2022-09-11T09:01:37.145Z,20.79
2022-09-11T09:04:33.100Z,20.37
2022-09-11T09:07:17.576Z,21.44
2022-09-11T09:10:14.404Z,21.17
2022-09-11T09:12:58.039Z,21.69
2022-09-11T09:16:20.259Z,20.12
2022-09-11T09:18:55.212Z,20.28
2022-09-11T09:21:35.469Z,21.09
2022-09-11T09:24:08.457Z,20.49
2022-09-11T09:26:40.527Z,21.57
2022-09-11T09:29:14.740Z,20.97
2022-09-11T09:31:44.383Z,20.93
2022-09-11T09:34:18.679Z,20.69
2022-09-11T09:36:56.227Z,20.38
2022-09-11T09:39:24.052Z,20.05
2022-09-11T09:42:13.978Z,20.00
2022-09-11T09:45:13.417Z,19.93
2022-09-11T09:47:44.688Z,19.87
2022-09-11T09:50:29.230Z,20.51
2022-09-11T09:53:33.664Z,19.98
2022-09-11T09:56:01.415Z,20.02
2022-09-11T09:58:34.499Z,19.82
2022-09-11T10:01:01.225Z,20.33
2022-09-11T10:03:27.988Z,20.31
2022-09-11T10:05:56.450Z,21.09
2022-09-11T10:08:35.565Z,20.95
2022-09-11T10:11:07.441Z,20.71
2022-09-11T10:13:38.042Z,20.71
2022-09-11T10:16:19.338Z,21.27
2022-09-11T10:18:47.181Z,20.58
2022-09-11T10:21:13.876Z,20.53
2022-09-11T10:23:47.988Z,20.72
2022-09-11T10:26:21.082Z,20.10
2022-09-11T10:28:48.490Z,20.24
2022-09-11T10:31:18.852Z,20.07
2022-09-11T10:33:58.103Z,19.73
2022-09-11T10:36:27.284Z,19.80
2022-09-11T10:38:55.670Z,19.84
2022-09-11T10:41:25.690Z,20.05
2022-09-11T10:44:14.003Z,19.94
2022-09-11T10:46:42.741Z,20.20
2022-09-11T10:49:21.158Z,20.24
2022-09-11T10:52:08.979Z,20.37
2022-09-11T10:54:45.942Z,20.13
2022-09-11T10:57:45.255Z,20.14
2022-09-11T11:00:21.244Z,20.31
2022-09-11T11:02:56.126Z,20.65
2022-09-11T11:05:53.227Z,20.91
2022-09-11T11:08:31.311Z,20.90
2022-09-11T11:11:14.855Z,20.51
2022-09-11T11:14:20.588Z,20.25
2022-09-11T11:17:24.146Z,20.16
2022-09-11T11:20:22.701Z,20.56
2022-09-11T11:23:16.296Z,20.26
2022-09-11T11:26:17.389Z,20.02
2022-09-11T11:28:46.809Z,20.30
2022-09-11T11:31:51.404Z,20.50
2022-09-11T11:34:43.624Z,20.49
2022-09-11T11:37:11.733Z,20.36
2022-09-11T11:40:10.456Z,20.66
2022-09-11T11:42:46.965Z,20.56
2022-09-11T11:45:27.808Z,20.63
2022-09-11T11:47:55.627Z,20.57
2022-09-11T11:50:33.468Z,20.71
2022-09-11T11:53:24.843Z,20.65
2022-09-11T11:56:08.956Z,20.67
2022-09-11T11:58:51.623Z,20.78
2022-09-11T12:01:29.524Z,21.29
2022-09-11T12:04:16.407Z,21.55
2022-09-11T12:06:43.272Z,22.01
2022-09-11T12:09:12.569Z,21.86
2022-09-11T12:11:39.254Z,21.68
2022-09-11T12:14:07.325Z,21.42
2022-09-11T12:16:35.763Z,21.56
2022-09-11T12:19:04.868Z,21.94
2022-09-11T12:21:31.700Z,21.76
2022-09-11T12:23:58.337Z,21.62
2022-09-11T12:26:26.947Z,22.13
2022-09-11T12:29:15.895Z,22.08
2022-09-11T12:31:51.641Z,22.00
2022-09-11T12:34:47.741Z,21.81
2022-09-11T12:37:26.633Z,22.07
2022-09-11T12:40:04.437Z,21.95
2022-09-11T12:42:31.065Z,22.25
2022-09-11T12:44:59.789Z,22.77
2022-09-11T12:47:35.699Z,22.90
2022-09-11T12:50:05.171Z,22.85
2022-09-11T12:52:40.144Z,22.81
2022-09-11T12:55:27.912Z,22.51
2022-09-11T12:57:55.125Z,22.44
2022-09-11T13:00:28.214Z,22.75
2022-09-11T13:02:58.258Z,22.53
2022-09-11T13:05:40.855Z,22.38
2022-09-11T13:08:17.943Z,22.64
2022-09-11T13:10:46.787Z,22.51
2022-09-11T13:13:35.158Z,22.45
2022-09-11T13:16:25.464Z,22.05
2022-09-11T13:18:59.377Z,22.16
2022-09-11T13:21:26.666Z,22.17
2022-09-11T13:23:53.748Z,22.89
2022-09-11T13:26:27.199Z,22.89
2022-09-11T13:28:56.856Z,22.56
2022-09-11T13:31:38.359Z,22.48
2022-09-11T13:34:13.182Z,22.79
2022-09-11T13:36:40.605Z,22.25
2022-09-11T13:39:09.220Z,22.29
2022-09-11T13:41:44.455Z,22.30
2022-09-11T13:44:46.461Z,22.27
2022-09-11T13:47:31.716Z,22.93
2022-09-11T13:50:05.314Z,22.94
2022-09-11T13:52:34.680Z,23.12
2022-09-11T13:55:10.183Z,23.19
2022-09-11T13:58:00.765Z,23.14
2022-09-11T14:00:48.711Z,23.29
2022-09-11T14:03:21.556Z,23.63
2022-09-11T14:05:56.590Z,23.57
2022-09-11T14:08:36.054Z,23.85
2022-09-11T14:11:11.163Z,24.06
2022-09-11T14:14:06.426Z,24.11
2022-09-11T14:16:36.658Z,24.03
2022-09-11T14:19:13.378Z,23.28
2022-09-11T14:21:46.000Z,22.96
2022-09-11T14:24:37.055Z,24.19
2022-09-11T14:27:23.404Z,24.89
2022-09-11T14:29:55.571Z,24.49
2022-09-11T14:32:33.843Z,24.05
2022-09-11T14:35:09.339Z,24.20
2022-09-11T14:37:41.542Z,23.80
2022-09-11T14:40:16.001Z,23.92
2022-09-11T14:42:43.999Z,24.24
2022-09-11T14:45:23.141Z,23.84
2022-09-11T14:47:50.527Z,23.33
2022-09-11T14:50:17.481Z,23.30
2022-09-11T14:52:44.314Z,23.00
2022-09-11T14:55:15.914Z,22.70
2022-09-11T14:57:42.549Z,22.85
2022-09-11T15:00:10.953Z,23.33
2022-09-11T15:02:37.516Z,24.02
2022-09-11T15:05:07.110Z,23.14
2022-09-11T15:07:35.772Z,23.20
2022-09-11T15:10:02.339Z,22.87
2022-09-11T15:12:29.403Z,22.42
2022-09-11T15:14:58.479Z,22.16
2022-09-11T15:17:31.493Z,22.02
2022-09-11T15:20:00.394Z,22.26
2022-09-11T15:22:27.698Z,22.18
2022-09-11T15:24:56.113Z,22.33
2022-09-11T15:27:25.037Z,22.12
2022-09-11T15:29:51.735Z,21.95
2022-09-11T15:32:18.276Z,22.00
2022-09-11T15:34:45.349Z,22.04
2022-09-11T15:37:12.162Z,22.16
2022-09-11T15:39:38.860Z,22.38
2022-09-11T15:42:07.411Z,22.08
2022-09-11T15:44:36.296Z,22.08
2022-09-11T15:47:07.095Z,22.63
2022-09-11T15:49:40.707Z,23.30
2022-09-11T15:52:07.419Z,23.64
2022-09-11T15:54:33.992Z,24.61
2022-09-11T15:57:00.737Z,24.04
2022-09-11T15:59:27.433Z,22.60
2022-09-11T16:01:54.046Z,22.59
2022-09-11T16:04:21.692Z,22.63
2022-09-11T16:06:49.400Z,22.45
2022-09-11T16:09:21.201Z,22.65
2022-09-11T16:11:48.952Z,22.17
2022-09-11T16:14:30.206Z,22.44
2022-09-11T16:16:58.007Z,22.30
2022-09-11T16:19:27.920Z,22.07
2022-09-11T16:22:00.521Z,21.96
2022-09-11T16:24:28.883Z,21.98
2022-09-11T16:26:56.025Z,22.00
2022-09-11T16:29:51.173Z,21.93
2022-09-11T16:32:28.273Z,21.97
2022-09-11T16:34:56.913Z,21.89
2022-09-11T16:37:23.753Z,21.84
2022-09-11T16:39:50.813Z,21.90
2022-09-11T16:42:21.771Z,21.67
2022-09-11T16:44:49.457Z,21.82
2022-09-11T16:47:17.367Z,21.77
2022-09-11T16:50:05.816Z,22.23
2022-09-11T16:52:31.163Z,21.66
2022-09-11T16:54:57.784Z,21.86
2022-09-11T16:57:24.394Z,21.64
2022-09-11T16:59:50.985Z,21.65
2022-09-11T17:02:17.690Z,21.45
2022-09-11T17:04:44.299Z,21.42
2022-09-11T17:07:10.947Z,21.29
2022-09-11T17:09:37.801Z,21.56
2022-09-11T17:12:04.566Z,21.39
2022-09-11T17:14:31.181Z,21.40
2022-09-11T17:16:57.741Z,21.38
2022-09-11T17:19:24.515Z,21.40
2022-09-11T17:21:51.125Z,21.24
2022-09-11T17:24:21.606Z,21.34
2022-09-11T17:26:50.672Z,21.26
2022-09-11T17:29:19.448Z,21.14
2022-09-11T17:31:46.158Z,21.09
2022-09-11T17:34:12.870Z,21.02
2022-09-11T17:36:40.127Z,20.77
2022-09-11T17:39:07.377Z,20.72
2022-09-11T17:41:34.015Z,20.61
2022-09-11T17:44:00.604Z,20.64
2022-09-11T17:46:27.267Z,20.47
2022-09-11T17:48:53.918Z,20.33
2022-09-11T17:51:26.138Z,20.24
2022-09-11T17:53:58.502Z,20.11
2022-09-11T17:56:30.720Z,19.98
2022-09-11T17:58:59.565Z,19.94
2022-09-11T18:01:27.487Z,19.87
2022-09-11T18:03:56.941Z,19.93
2022-09-11T18:06:28.531Z,19.86
2022-09-11T18:09:01.947Z,19.66
2022-09-11T18:11:31.711Z,19.23
2022-09-11T18:14:00.251Z,19.13
2022-09-11T18:16:27.169Z,18.97
2022-09-11T18:18:54.488Z,18.89
2022-09-11T18:21:21.228Z,18.83
2022-09-11T18:23:49.683Z,18.93
2022-09-11T18:26:19.907Z,19.02
2022-09-11T18:28:46.982Z,19.01
2022-09-11T18:31:13.629Z,18.86
2022-09-11T18:33:40.387Z,18.86
2022-09-11T18:36:11.179Z,18.94
2022-09-11T18:38:37.717Z,18.78
2022-09-11T18:41:04.559Z,18.71
2022-09-11T18:43:31.058Z,18.49
2022-09-11T18:46:02.813Z,18.37
2022-09-11T18:48:29.503Z,18.38
2022-09-11T18:50:56.110Z,18.49
2022-09-11T18:53:23.292Z,18.52
2022-09-11T18:56:00.373Z,18.44
2022-09-11T18:58:31.577Z,18.24
2022-09-11T19:01:00.484Z,18.23
2022-09-11T19:03:30.305Z,18.21
2022-09-11T19:06:03.822Z,18.29
2022-09-11T19:08:31.851Z,17.89
2022-09-11T19:11:00.142Z,17.87
2022-09-11T19:13:26.976Z,17.79
2022-09-11T19:15:57.828Z,17.74
2022-09-11T19:18:25.221Z,17.72
2022-09-11T19:21:00.447Z,17.78
2022-09-11T19:23:31.584Z,17.84
2022-09-11T19:26:05.970Z,17.88
2022-09-11T19:28:35.585Z,18.03
2022-09-11T19:31:02.847Z,17.99
2022-09-11T19:33:30.526Z,17.88
2022-09-11T19:36:02.659Z,17.85
2022-09-11T19:38:36.718Z,17.84
2022-09-11T19:41:05.406Z,17.93
2022-09-11T19:43:34.429Z,17.82
2022-09-11T19:46:02.915Z,17.83
2022-09-11T19:48:30.691Z,17.53
2022-09-11T19:50:57.861Z,17.57
2022-09-11T19:53:24.458Z,17.46
2022-09-11T19:55:55.093Z,17.73
2022-09-11T19:58:24.029Z,17.61
2022-09-11T20:00:51.434Z,17.55
2022-09-11T20:03:19.024Z,17.42
2022-09-11T20:05:46.110Z,17.40
2022-09-11T20:08:16.170Z,17.33
2022-09-11T20:10:45.798Z,17.25
2022-09-11T20:13:12.886Z,17.23
2022-09-11T20:15:40.319Z,17.11
2022-09-11T20:18:07.880Z,16.90
2022-09-11T20:20:36.344Z,16.96
2022-09-11T20:23:03.718Z,16.89
2022-09-11T20:25:30.665Z,16.91
2022-09-11T20:28:00.427Z,16.86
2022-09-11T20:30:27.138Z,16.66
2022-09-11T20:32:53.877Z,16.56
2022-09-11T20:35:20.369Z,16.69
2022-09-11T20:37:46.907Z,16.70
2022-09-11T20:40:13.606Z,16.74
2022-09-11T20:42:40.165Z,16.66
2022-09-11T20:45:07.059Z,16.66
2022-09-11T20:47:33.660Z,16.67
2022-09-11T20:50:00.681Z,16.63
2022-09-11T20:52:27.560Z,16.41
2022-09-11T20:54:54.425Z,16.22
2022-09-11T20:57:21.034Z,16.38
2022-09-11T20:59:47.688Z,16.46
2022-09-11T21:02:14.822Z,16.37
2022-09-11T21:04:41.764Z,16.25
2022-09-11T21:07:08.464Z,16.11
2022-09-11T21:09:35.482Z,15.95
2022-09-11T21:12:02.257Z,16.03
2022-09-11T21:14:28.833Z,16.20
2022-09-11T21:16:55.405Z,16.10
2022-09-11T21:19:21.999Z,16.20
2022-09-11T21:21:48.645Z,16.23
2022-09-11T21:24:15.180Z,16.23
2022-09-11T21:26:42.465Z,16.34
2022-09-11T21:29:12.351Z,16.30
2022-09-11T21:31:38.893Z,16.35
2022-09-11T21:34:05.610Z,16.49
2022-09-11T21:36:33.551Z,16.40
2022-09-11T21:39:00.157Z,16.42
2022-09-11T21:41:26.692Z,16.45
2022-09-11T21:43:53.191Z,16.54
2022-09-11T21:46:20.182Z,16.37
2022-09-11T21:48:46.747Z,16.38
2022-09-11T21:51:16.305Z,16.47
2022-09-11T21:53:45.485Z,16.51
2022-09-11T21:56:24.942Z,16.28
2022-09-11T21:58:52.066Z,16.17
2022-09-11T22:01:20.328Z,16.11
2022-09-11T22:03:47.081Z,16.02
2022-09-11T22:06:14.045Z,15.87
2022-09-11T22:08:43.202Z,16.05
2022-09-11T22:11:11.045Z,15.80
2022-09-11T22:13:38.554Z,15.75
2022-09-11T22:16:11.159Z,15.75
2022-09-11T22:18:39.275Z,15.68
2022-09-11T22:21:07.001Z,15.62
2022-09-11T22:23:33.874Z,15.72
2022-09-11T22:26:04.976Z,15.65
2022-09-11T22:28:31.634Z,15.78
2022-09-11T22:30:58.422Z,15.73
2022-09-11T22:33:25.458Z,15.69
2022-09-11T22:35:52.035Z,15.69
2022-09-11T22:38:18.647Z,15.78
2022-09-11T22:40:45.146Z,15.88
2022-09-11T22:43:11.824Z,15.76
2022-09-11T22:45:38.409Z,15.78
2022-09-11T22:48:05.036Z,15.77
2022-09-11T22:50:33.302Z,15.64
2022-09-11T22:52:59.888Z,15.61
2022-09-11T22:55:26.463Z,15.65
2022-09-11T22:57:53.022Z,15.73
2022-09-11T23:00:19.794Z,15.60
2022-09-11T23:02:46.364Z,15.55
2022-09-11T23:05:31.598Z,15.49
2022-09-11T23:07:58.175Z,15.35
2022-09-11T23:10:25.616Z,15.47
2022-09-11T23:12:53.321Z,15.62
2022-09-11T23:15:19.858Z,15.50
2022-09-11T23:17:46.941Z,15.39
2022-09-11T23:20:13.844Z,15.33
2022-09-11T23:22:40.326Z,15.16
2022-09-11T23:25:07.226Z,15.16
2022-09-11T23:27:33.730Z,15.32
2022-09-11T23:30:00.294Z,15.37
2022-09-11T23:32:26.805Z,15.29
2022-09-11T23:34:53.373Z,15.45
2022-09-11T23:37:19.914Z,15.30
2022-09-11T23:39:46.835Z,15.21
2022-09-11T23:42:13.527Z,15.27
2022-09-11T23:44:40.094Z,15.13
2022-09-11T23:47:06.661Z,15.09
2022-09-11T23:49:36.358Z,15.22
2022-09-11T23:52:04.104Z,15.23
2022-09-11T23:54:30.634Z,15.19
2022-09-11T23:56:57.206Z,15.15
2022-09-11T23:59:23.712Z,15.09
